Time,TemperatureF,DewpointF,PressureIn,WindDirection,WindDirectionDegrees,WindSpeedMPH,WindSpeedGustMPH,Humidity,HourlyPrecipIn,Conditions,Clouds,dailyrainin,SoftwareType,DateUTC
2013-08-12 00:04:00,65.8,21.2,27.52,SE,146,0.0,0.0,18,0.00,,---,0.00,VWS V14.01,2013-08-12 07:04:00,
2013-08-12 00:09:00,65.7,21.0,27.52,SE,146,0.0,0.0,18,0.00,,---,0.00,VWS V14.01,2013-08-12 07:09:00,
2013-08-12 00:14:00,65.5,20.9,27.55,SE,146,0.0,0.0,18,0.00,,---,0.00,VWS V14.01,2013-08-12 07:14:00,
2013-08-12 00:19:00,65.3,20.7,27.55,SSE,147,0.0,0.0,18,0.00,,---,0.00,VWS V14.01,2013-08-12 07:19:00,
2013-08-12 00:24:00,64.9,20.4,27.55,SE,146,0.0,0.0,18,0.00,,---,0.00,VWS V14.01,2013-08-12 07:24:00,
2013-08-12 00:29:00,64.6,20.1,27.52,SSE,147,0.0,0.0,18,0.00,,---,0.00,VWS V14.01,2013-08-12 07:29:00,
2013-08-12 00:34:00,64.4,20.0,27.52,SE,146,0.0,0.0,18,0.00,,---,0.00,VWS V14.01,2013-08-12 07:34:00,
2013-08-12 00:39:00,64.0,19.7,27.52,SE,146,0.0,0.0,18,0.00,,---,0.00,VWS V14.01,2013-08-12 07:39:00,
2013-08-12 00:44:00,63.9,19.6,27.55,SSE,147,0.0,0.0,18,0.00,,---,0.00,VWS V14.01,2013-08-12 07:44:00,
2013-08-12 00:49:00,63.9,19.6,27.55,SSE,147,0.0,0.0,18,0.00,,---,0.00,VWS V14.01,2013-08-12 07:49:00,
2013-08-12 00:54:00,63.7,23.0,27.55,SE,146,0.0,0.0,21,0.00,,---,0.00,VWS V14.01,2013-08-12 07:54:00,
2013-08-12 00:59:00,63.7,23.0,27.55,SSE,147,3.6,4.0,21,0.00,,---,0.00,VWS V14.01,2013-08-12 07:59:00,
2013-08-12 01:04:00,63.9,25.4,27.55,SSE,147,0.0,0.0,23,0.00,,---,0.00,VWS V14.01,2013-08-12 08:04:00,
2013-08-12 01:09:00,64.0,25.5,27.55,SSE,147,0.0,0.0,23,0.00,,---,0.00,VWS V14.01,2013-08-12 08:09:00,
2013-08-12 01:14:00,64.0,23.3,27.55,WSW,237,0.0,0.0,21,0.00,,---,0.00,VWS V14.01,2013-08-12 08:14:00,
2013-08-12 01:19:00,63.9,25.4,27.55,WSW,237,0.0,0.0,23,0.00,,---,0.00,VWS V14.01,2013-08-12 08:19:00,
2013-08-12 01:24:00,63.9,25.4,27.55,SW,220,0.0,0.0,23,0.00,,---,0.00,VWS V14.01,2013-08-12 08:24:00,
2013-08-12 01:29:00,63.7,25.2,27.55,SW,220,0.0,0.0,23,0.00,,---,0.00,VWS V14.01,2013-08-12 08:29:00,
2013-08-12 01:34:00,63.5,25.1,27.55,SW,220,0.0,0.0,23,0.00,,---,0.00,VWS V14.01,2013-08-12 08:34:00,
2013-08-12 01:39:00,63.3,24.9,27.55,SW,220,0.0,0.0,23,0.00,,---,0.00,VWS V14.01,2013-08-12 08:39:00,
2013-08-12 01:44:00,63.1,24.8,27.55,SW,220,0.0,0.0,23,0.00,,---,0.00,VWS V14.01,2013-08-12 08:44:00,
2013-08-12 01:49:00,63.0,25.6,27.55,SE,130,0.0,0.0,24,0.00,,---,0.00,VWS V14.01,2013-08-12 08:49:00,
2013-08-12 01:54:00,63.1,25.8,27.55,ESE,120,0.0,0.0,24,0.00,,---,0.00,VWS V14.01,2013-08-12 08:54:00,
2013-08-12 01:59:00,63.1,25.8,27.55,ESE,120,0.0,0.0,24,0.00,,---,0.00,VWS V14.01,2013-08-12 08:59:00,
2013-08-12 02:04:00,63.0,25.6,27.55,ESE,120,0.0,0.0,24,0.00,,---,0.00,VWS V14.01,2013-08-12 09:04:00,
2013-08-12 02:09:00,62.8,25.5,27.55,ESE,120,0.0,0.0,24,0.00,,---,0.00,VWS V14.01,2013-08-12 09:09:00,
2013-08-12 02:14:00,62.6,25.3,27.55,ESE,120,0.0,0.0,24,0.00,,---,0.00,VWS V14.01,2013-08-12 09:14:00,
2013-08-12 02:19:00,62.4,25.2,27.55,ESE,120,0.0,0.0,24,0.00,,---,0.00,VWS V14.01,2013-08-12 09:19:00,
2013-08-12 02:24:00,62.1,24.9,27.55,ESE,120,0.0,0.0,24,0.00,,---,0.00,VWS V14.01,2013-08-12 09:24:00,
2013-08-12 02:29:00,61.9,24.7,27.52,ESE,120,0.0,0.0,24,0.00,,---,0.00,VWS V14.01,2013-08-12 09:29:00,
2013-08-12 02:34:00,61.7,25.5,27.52,ESE,122,0.0,0.0,25,0.00,,---,0.00,VWS V14.01,2013-08-12 09:34:00,
2013-08-12 02:39:00,61.5,25.4,27.52,ESE,122,0.0,0.0,25,0.00,,---,0.00,VWS V14.01,2013-08-12 09:39:00,
2013-08-12 02:44:00,61.3,25.2,27.55,ESE,122,0.0,0.0,25,0.00,,---,0.00,VWS V14.01,2013-08-12 09:44:00,
2013-08-12 02:49:00,61.3,25.2,27.55,ESE,122,0.0,0.0,25,0.00,,---,0.00,VWS V14.01,2013-08-12 09:49:00,
2013-08-12 02:54:00,61.5,25.4,27.55,ESE,122,0.0,0.0,25,0.00,,---,0.00,VWS V14.01,2013-08-12 09:54:00,
2013-08-12 02:59:00,61.3,25.2,27.55,ESE,122,0.0,0.0,25,0.00,,---,0.00,VWS V14.01,2013-08-12 09:59:00,
2013-08-12 03:04:00,61.2,25.1,27.55,ESE,122,0.0,0.0,25,0.00,,---,0.00,VWS V14.01,2013-08-12 10:04:00,
2013-08-12 03:09:00,61.0,24.9,27.55,ESE,122,0.0,0.0,25,0.00,,---,0.00,VWS V14.01,2013-08-12 10:09:00,
2013-08-12 03:14:00,61.0,24.9,27.55,ESE,122,0.0,0.0,25,0.00,,---,0.00,VWS V14.01,2013-08-12 10:14:00,
2013-08-12 03:19:00,61.0,25.9,27.55,ESE,122,0.0,0.0,26,0.00,,---,0.00,VWS V14.01,2013-08-12 10:19:00,
2013-08-12 03:24:00,60.6,25.6,27.55,ESE,122,0.0,0.0,26,0.00,,---,0.00,VWS V14.01,2013-08-12 10:24:00,
2013-08-12 03:29:00,60.4,25.4,27.55,ESE,122,0.0,0.0,26,0.00,,---,0.00,VWS V14.01,2013-08-12 10:29:00,
2013-08-12 03:34:00,60.3,25.3,27.55,ESE,122,0.0,0.0,26,0.00,,---,0.00,VWS V14.01,2013-08-12 10:34:00,
2013-08-12 03:39:00,60.1,25.1,27.55,ESE,122,0.0,0.0,26,0.00,,---,0.00,VWS V14.01,2013-08-12 10:39:00,
2013-08-12 03:44:00,60.1,26.0,27.55,ESE,123,0.0,0.0,27,0.00,,---,0.00,VWS V14.01,2013-08-12 10:44:00,
2013-08-12 03:49:00,59.9,25.9,27.55,ESE,122,0.0,0.0,27,0.00,,---,0.00,VWS V14.01,2013-08-12 10:49:00,
2013-08-12 03:54:00,59.9,25.9,27.55,ESE,122,0.0,0.0,27,0.00,,---,0.00,VWS V14.01,2013-08-12 10:54:00,
2013-08-12 03:59:00,59.7,25.7,27.55,ESE,122,0.0,0.0,27,0.00,,---,0.00,VWS V14.01,2013-08-12 10:59:00,
2013-08-12 04:04:00,59.7,25.7,27.55,ESE,122,0.0,0.0,27,0.00,,---,0.00,VWS V14.01,2013-08-12 11:04:00,
2013-08-12 04:09:00,59.5,25.5,27.55,ESE,122,0.0,0.0,27,0.00,,---,0.00,VWS V14.01,2013-08-12 11:09:00,
2013-08-12 04:14:00,59.4,25.4,27.52,East,98,0.0,0.0,27,0.00,,---,0.00,VWS V14.01,2013-08-12 11:14:00,
2013-08-12 04:18:00,59.2,26.1,27.52,East,97,0.0,0.0,28,0.00,,---,0.00,VWS V14.01,2013-08-12 11:18:00,
2013-08-12 04:23:00,59.0,26.0,27.52,East,97,0.0,0.0,28,0.00,,---,0.00,VWS V14.01,2013-08-12 11:23:00,
2013-08-12 04:28:00,58.8,26.6,27.55,East,97,0.0,0.0,29,0.00,,---,0.00,VWS V14.01,2013-08-12 11:28:00,
2013-08-12 04:33:00,58.6,26.5,27.55,East,97,0.0,0.0,29,0.00,,---,0.00,VWS V14.01,2013-08-12 11:33:00,
2013-08-12 04:38:00,58.5,26.3,27.55,East,98,0.0,0.0,29,0.00,,---,0.00,VWS V14.01,2013-08-12 11:38:00,
2013-08-12 04:43:00,58.5,26.3,27.52,East,97,0.0,0.0,29,0.00,,---,0.00,VWS V14.01,2013-08-12 11:43:00,
2013-08-12 04:48:00,58.5,26.3,27.52,East,97,0.0,0.0,29,0.00,,---,0.00,VWS V14.01,2013-08-12 11:48:00,
2013-08-12 04:53:00,58.3,27.0,27.52,East,97,0.0,0.0,30,0.00,,---,0.00,VWS V14.01,2013-08-12 11:53:00,
2013-08-12 04:58:00,58.1,26.9,27.55,East,98,0.0,0.0,30,0.00,,---,0.00,VWS V14.01,2013-08-12 11:58:00,
2013-08-12 05:03:00,58.1,26.9,27.55,East,98,0.0,0.0,30,0.00,,---,0.00,VWS V14.01,2013-08-12 12:03:00,
2013-08-12 05:08:00,57.9,26.7,27.55,East,97,0.0,0.0,30,0.00,,---,0.00,VWS V14.01,2013-08-12 12:08:00,
2013-08-12 05:13:00,58.1,30.6,27.55,East,98,0.0,0.0,35,0.00,,---,0.00,VWS V14.01,2013-08-12 12:13:00,
2013-08-12 05:18:00,58.1,30.6,27.55,SE,141,3.1,3.1,35,0.00,,---,0.00,VWS V14.01,2013-08-12 12:18:00,
2013-08-12 05:23:00,58.1,30.6,27.55,SE,145,0.0,0.0,35,0.00,,---,0.00,VWS V14.01,2013-08-12 12:23:00,
2013-08-12 05:28:00,58.1,29.9,27.55,SSE,148,3.1,3.1,34,0.00,,---,0.00,VWS V14.01,2013-08-12 12:28:00,
2013-08-12 05:33:00,58.1,30.6,27.55,SE,145,0.0,0.0,35,0.00,,---,0.00,VWS V14.01,2013-08-12 12:33:00,
2013-08-12 05:38:00,57.9,30.5,27.55,SE,145,0.0,0.0,35,0.00,,---,0.00,VWS V14.01,2013-08-12 12:38:00,
2013-08-12 05:43:00,57.9,30.5,27.55,SSW,199,0.0,0.0,35,0.00,,---,0.00,VWS V14.01,2013-08-12 12:43:00,
2013-08-12 05:48:00,57.7,30.3,27.55,SSW,199,0.0,0.0,35,0.00,,---,0.00,VWS V14.01,2013-08-12 12:48:00,
2013-08-12 05:53:00,57.6,30.1,27.55,SSW,199,0.0,0.0,35,0.00,,---,0.00,VWS V14.01,2013-08-12 12:53:00,
2013-08-12 05:58:00,57.6,30.1,27.55,SSW,199,0.0,0.0,35,0.00,,---,0.00,VWS V14.01,2013-08-12 12:58:00,
2013-08-12 06:03:00,57.7,30.3,27.55,SSW,200,0.0,0.0,35,0.00,,---,0.00,VWS V14.01,2013-08-12 13:03:00,
2013-08-12 06:08:00,57.7,30.3,27.55,SSW,199,0.0,0.0,35,0.00,,---,0.00,VWS V14.01,2013-08-12 13:08:00,
2013-08-12 06:13:00,57.9,30.5,27.55,SSW,200,0.0,0.0,35,0.00,,---,0.00,VWS V14.01,2013-08-12 13:13:00,
2013-08-12 06:18:00,58.3,30.8,27.55,SSW,199,0.0,0.0,35,0.00,,---,0.00,VWS V14.01,2013-08-12 13:18:00,
2013-08-12 06:23:00,58.8,31.2,27.55,SSW,199,0.0,0.0,35,0.00,,---,0.00,VWS V14.01,2013-08-12 13:23:00,
2013-08-12 06:28:00,59.4,31.7,27.55,SSW,199,0.0,0.0,35,0.00,,---,0.00,VWS V14.01,2013-08-12 13:28:00,
2013-08-12 06:33:00,60.1,32.4,27.55,SSW,199,0.0,0.0,35,0.00,,---,0.00,VWS V14.01,2013-08-12 13:33:00,
2013-08-12 06:38:00,61.0,32.4,27.55,SSW,200,0.0,0.0,34,0.00,,---,0.00,VWS V14.01,2013-08-12 13:38:00,
2013-08-12 06:43:00,61.5,32.9,27.55,SSW,199,0.0,0.0,34,0.00,,---,0.00,VWS V14.01,2013-08-12 13:43:00,
2013-08-12 06:48:00,62.1,33.4,27.55,SSW,199,0.0,0.0,34,0.00,,---,0.00,VWS V14.01,2013-08-12 13:48:00,
2013-08-12 06:53:00,62.4,33.0,27.55,SSW,199,0.0,0.0,33,0.00,,---,0.00,VWS V14.01,2013-08-12 13:53:00,
2013-08-12 06:58:00,62.6,32.3,27.55,SSW,200,0.0,0.0,32,0.00,,---,0.00,VWS V14.01,2013-08-12 13:58:00,
2013-08-12 07:03:00,63.0,31.9,27.55,SSW,199,0.0,0.0,31,0.00,,---,0.00,VWS V14.01,2013-08-12 14:03:00,
2013-08-12 07:08:00,63.1,31.2,27.55,SSW,199,0.0,0.0,30,0.00,,---,0.00,VWS V14.01,2013-08-12 14:08:00,
2013-08-12 07:13:00,63.3,30.5,27.55,SSW,199,0.0,0.0,29,0.00,,---,0.00,VWS V14.01,2013-08-12 14:13:00,
2013-08-12 07:18:00,63.3,31.4,27.55,SSW,199,0.0,0.0,30,0.00,,---,0.00,VWS V14.01,2013-08-12 14:18:00,
2013-08-12 07:23:00,63.5,31.5,27.55,SSW,198,0.0,0.0,30,0.00,,---,0.00,VWS V14.01,2013-08-12 14:23:00,
2013-08-12 07:28:00,63.9,31.9,27.55,SSW,199,0.0,0.0,30,0.00,,---,0.00,VWS V14.01,2013-08-12 14:28:00,
2013-08-12 07:33:00,64.4,31.5,27.55,SSW,199,0.0,0.0,29,0.00,,---,0.00,VWS V14.01,2013-08-12 14:33:00,
2013-08-12 07:38:00,64.8,30.0,27.55,SSW,202,0.0,0.0,27,0.00,,---,0.00,VWS V14.01,2013-08-12 14:38:00,
2013-08-12 07:43:00,64.9,30.2,27.55,SSW,199,0.0,0.0,27,0.00,,---,0.00,VWS V14.01,2013-08-12 14:43:00,
2013-08-12 07:48:00,65.3,29.6,27.55,SSW,199,0.0,0.0,26,0.00,,---,0.00,VWS V14.01,2013-08-12 14:48:00,
2013-08-12 07:53:00,65.5,29.7,27.55,SSW,200,0.0,0.0,26,0.00,,---,0.00,VWS V14.01,2013-08-12 14:53:00,
2013-08-12 07:58:00,65.8,30.0,27.55,SSW,199,0.0,0.0,26,0.00,,---,0.00,VWS V14.01,2013-08-12 14:58:00,
2013-08-12 08:03:00,66.2,29.4,27.55,SSW,199,0.0,0.0,25,0.00,,---,0.00,VWS V14.01,2013-08-12 15:03:00,
2013-08-12 08:08:00,66.6,28.7,27.55,SSW,199,0.0,0.0,24,0.00,,---,0.00,VWS V14.01,2013-08-12 15:08:00,
2013-08-12 08:13:00,66.7,28.8,27.55,SSW,199,0.0,0.0,24,0.00,,---,0.00,VWS V14.01,2013-08-12 15:13:00,
2013-08-12 08:18:00,67.1,29.1,27.55,NNW,331,0.0,0.0,24,0.00,,---,0.00,VWS V14.01,2013-08-12 15:18:00,
2013-08-12 08:23:00,67.5,29.4,27.55,NW,323,4.0,4.0,24,0.00,,---,0.00,VWS V14.01,2013-08-12 15:23:00,
2013-08-12 08:28:00,67.8,29.7,27.55,NW,320,0.0,2.2,24,0.00,,---,0.00,VWS V14.01,2013-08-12 15:28:00,
2013-08-12 08:33:00,68.2,29.0,27.55,NW,321,0.0,0.0,23,0.00,,---,0.00,VWS V14.01,2013-08-12 15:33:00,
2013-08-12 08:38:00,68.2,29.0,27.55,NW,320,0.0,0.0,23,0.00,,---,0.00,VWS V14.01,2013-08-12 15:38:00,
2013-08-12 08:43:00,68.2,29.0,27.55,West,280,4.0,4.0,23,0.00,,---,0.00,VWS V14.01,2013-08-12 15:43:00,
2013-08-12 08:48:00,68.4,30.2,27.55,NNW,333,3.1,3.6,24,0.00,,---,0.00,VWS V14.01,2013-08-12 15:48:00,
2013-08-12 08:53:00,69.3,29.9,27.55,NNW,328,3.6,3.6,23,0.00,,---,0.00,VWS V14.01,2013-08-12 15:53:00,
2013-08-12 08:58:00,70.2,30.7,27.58,North,0,4.0,4.0,23,0.00,,---,0.00,VWS V14.01,2013-08-12 15:58:00,
2013-08-12 09:03:00,71.1,30.3,27.58,NW,318,3.6,3.6,22,0.00,,---,0.00,VWS V14.01,2013-08-12 16:03:00,
2013-08-12 09:08:00,71.6,30.8,27.58,NW,307,3.1,3.1,22,0.00,,---,0.00,VWS V14.01,2013-08-12 16:08:00,
2013-08-12 09:13:00,72.1,27.6,27.58,ENE,69,3.6,3.6,19,0.00,,---,0.00,VWS V14.01,2013-08-12 16:13:00,
2013-08-12 09:18:00,72.7,30.5,27.58,ESE,114,2.7,3.6,21,0.00,,---,0.00,VWS V14.01,2013-08-12 16:18:00,
2013-08-12 09:23:00,73.0,28.4,27.58,ENE,69,2.7,3.6,19,0.00,,---,0.00,VWS V14.01,2013-08-12 16:23:00,
2013-08-12 09:28:00,73.4,27.4,27.58,ENE,59,3.6,3.6,18,0.00,,---,0.00,VWS V14.01,2013-08-12 16:28:00,
2013-08-12 09:33:00,73.6,27.5,27.58,ESE,107,3.6,3.6,18,0.00,,---,0.00,VWS V14.01,2013-08-12 16:33:00,
2013-08-12 09:38:00,73.8,24.8,27.58,ENE,71,5.4,7.2,16,0.00,,---,0.00,VWS V14.01,2013-08-12 16:38:00,
2013-08-12 09:43:00,74.1,27.9,27.58,ENE,75,0.0,2.2,18,0.00,,---,0.00,VWS V14.01,2013-08-12 16:43:00,
2013-08-12 09:48:00,74.5,28.2,27.58,East,92,0.0,0.0,18,0.00,,---,0.00,VWS V14.01,2013-08-12 16:48:00,
2013-08-12 09:53:00,74.8,28.5,27.58,East,84,2.7,2.7,18,0.00,,---,0.00,VWS V14.01,2013-08-12 16:53:00,
2013-08-12 09:58:00,75.0,25.8,27.58,ESE,107,2.2,2.7,16,0.00,,---,0.00,VWS V14.01,2013-08-12 16:58:00,
2013-08-12 10:03:00,75.2,24.4,27.58,ESE,121,2.7,3.1,15,0.00,,---,0.00,VWS V14.01,2013-08-12 17:03:00,
2013-08-12 10:08:00,75.6,24.7,27.58,NE,43,4.0,5.4,15,0.00,,---,0.00,VWS V14.01,2013-08-12 17:08:00,
2013-08-12 10:13:00,76.1,25.1,27.55,SE,127,2.2,2.7,15,0.00,,---,0.00,VWS V14.01,2013-08-12 17:13:00,
2013-08-12 10:18:00,76.1,25.1,27.55,East,82,3.1,3.1,15,0.00,,---,0.00,VWS V14.01,2013-08-12 17:18:00,
2013-08-12 10:23:00,76.3,25.3,27.55,ESE,110,2.7,4.0,15,0.00,,---,0.00,VWS V14.01,2013-08-12 17:23:00,
2013-08-12 10:28:00,76.5,25.4,27.58,East,87,5.8,5.8,15,0.00,,---,0.00,VWS V14.01,2013-08-12 17:28:00,
2013-08-12 10:33:00,76.8,25.7,27.58,ENE,76,6.7,6.7,15,0.00,,---,0.00,VWS V14.01,2013-08-12 17:33:00,
2013-08-12 10:38:00,77.0,25.9,27.58,NE,45,3.6,4.0,15,0.00,,---,0.00,VWS V14.01,2013-08-12 17:38:00,
2013-08-12 10:43:00,77.0,25.9,27.55,East,85,5.4,5.4,15,0.00,,---,0.00,VWS V14.01,2013-08-12 17:43:00,
2013-08-12 10:48:00,77.2,26.0,27.55,ESE,114,2.7,3.6,15,0.00,,---,0.00,VWS V14.01,2013-08-12 17:48:00,
2013-08-12 10:53:00,77.5,26.3,27.55,SE,136,5.4,6.3,15,0.00,,---,0.00,VWS V14.01,2013-08-12 17:53:00,
2013-08-12 10:58:00,78.1,26.7,27.58,East,82,8.1,8.1,15,0.00,,---,0.00,VWS V14.01,2013-08-12 17:58:00,
2013-08-12 11:03:00,78.4,27.0,27.58,ESE,105,3.6,4.9,15,0.00,,---,0.00,VWS V14.01,2013-08-12 18:03:00,
2013-08-12 11:08:00,78.4,27.0,27.58,NE,39,2.7,2.7,15,0.00,,---,0.00,VWS V14.01,2013-08-12 18:08:00,
2013-08-12 11:13:00,78.8,27.3,27.55,East,83,10.1,10.1,15,0.00,,---,0.00,VWS V14.01,2013-08-12 18:13:00,
2013-08-12 11:18:00,79.0,27.4,27.55,SE,125,5.8,6.3,15,0.00,,---,0.00,VWS V14.01,2013-08-12 18:18:00,
2013-08-12 11:23:00,79.3,27.7,27.55,NNE,33,3.6,4.5,15,0.00,,---,0.00,VWS V14.01,2013-08-12 18:23:00,
2013-08-12 11:28:00,79.3,27.7,27.55,SE,135,3.6,3.6,15,0.00,,---,0.00,VWS V14.01,2013-08-12 18:28:00,
2013-08-12 11:33:00,79.5,27.9,27.55,ESE,122,8.1,8.1,15,0.00,,---,0.00,VWS V14.01,2013-08-12 18:33:00,
2013-08-12 11:38:00,79.5,27.9,27.55,NE,45,5.4,5.4,15,0.00,,---,0.00,VWS V14.01,2013-08-12 18:38:00,
2013-08-12 11:43:00,79.7,28.0,27.55,East,85,8.1,8.1,15,0.00,,---,0.00,VWS V14.01,2013-08-12 18:43:00,
2013-08-12 11:49:00,80.2,28.4,27.55,East,100,2.7,8.3,15,0.00,,---,0.00,VWS V14.01,2013-08-12 18:49:00,
2013-08-12 11:54:00,80.6,27.0,27.55,ENE,70,6.3,8.7,14,0.00,,---,0.00,VWS V14.01,2013-08-12 18:54:00,
2013-08-12 11:59:00,80.6,27.0,27.55,East,96,3.6,4.0,14,0.00,,---,0.00,VWS V14.01,2013-08-12 18:59:00,
2013-08-12 12:04:00,81.0,27.3,27.55,NE,34,4.5,5.8,14,0.00,,---,0.00,VWS V14.01,2013-08-12 19:04:00,
2013-08-12 12:09:00,81.3,27.6,27.55,NE,46,5.4,7.6,14,0.00,,---,0.00,VWS V14.01,2013-08-12 19:09:00,
2013-08-12 12:14:00,81.7,27.9,27.55,NE,55,2.7,3.6,14,0.00,,---,0.00,VWS V14.01,2013-08-12 19:14:00,
2013-08-12 12:19:00,81.5,27.8,27.55,East,80,2.7,5.4,14,0.00,,---,0.00,VWS V14.01,2013-08-12 19:19:00,
2013-08-12 12:24:00,81.5,27.8,27.55,ENE,63,2.7,4.9,14,0.00,,---,0.00,VWS V14.01,2013-08-12 19:24:00,
2013-08-12 12:29:00,82.2,28.3,27.55,ENE,58,4.5,4.9,14,0.00,,---,0.00,VWS V14.01,2013-08-12 19:29:00,
2013-08-12 12:34:00,82.4,28.5,27.55,NNE,12,4.0,4.0,14,0.00,,---,0.00,VWS V14.01,2013-08-12 19:34:00,
2013-08-12 12:39:00,82.9,28.9,27.55,North,2,4.9,7.6,14,0.00,,---,0.00,VWS V14.01,2013-08-12 19:39:00,
2013-08-12 12:44:00,83.7,29.5,27.55,WSW,245,4.5,8.1,14,0.00,,---,0.00,VWS V14.01,2013-08-12 19:44:00,
2013-08-12 12:49:00,84.4,28.2,27.55,North,10,5.8,8.3,13,0.00,,---,0.00,VWS V14.01,2013-08-12 19:49:00,
2013-08-12 12:54:00,85.1,28.8,27.55,North,349,4.9,4.9,13,0.00,,---,0.00,VWS V14.01,2013-08-12 19:54:00,
2013-08-12 12:59:00,85.1,28.8,27.55,WNW,291,2.7,5.4,13,0.00,,---,0.00,VWS V14.01,2013-08-12 19:59:00,
2013-08-12 13:04:00,85.5,29.1,27.55,NNW,329,4.0,6.3,13,0.00,,---,0.00,VWS V14.01,2013-08-12 20:04:00,
2013-08-12 13:09:00,85.5,29.1,27.55,SW,236,0.0,0.0,13,0.00,,---,0.00,VWS V14.01,2013-08-12 20:09:00,
2013-08-12 13:14:00,85.6,29.2,27.55,NNE,20,2.2,4.9,13,0.00,,---,0.00,VWS V14.01,2013-08-12 20:14:00,
2013-08-12 13:19:00,85.6,29.2,27.55,NE,55,0.0,3.1,13,0.00,,---,0.00,VWS V14.01,2013-08-12 20:19:00,
2013-08-12 13:24:00,86.0,29.5,27.55,WSW,255,4.9,5.8,13,0.00,,---,0.00,VWS V14.01,2013-08-12 20:24:00,
2013-08-12 13:29:00,86.9,30.2,27.55,WSW,243,5.8,5.8,13,0.00,,---,0.00,VWS V14.01,2013-08-12 20:29:00,
2013-08-12 13:34:00,87.4,30.6,27.55,SW,216,8.1,8.1,13,0.00,,---,0.00,VWS V14.01,2013-08-12 20:34:00,
2013-08-12 13:39:00,88.0,31.0,27.55,SSW,213,4.0,4.0,13,0.00,,---,0.00,VWS V14.01,2013-08-12 20:39:00,
2013-08-12 13:44:00,88.2,31.2,27.55,SW,217,3.6,4.0,13,0.00,,---,0.00,VWS V14.01,2013-08-12 20:44:00,
2013-08-12 13:49:00,88.3,31.3,27.55,SW,234,3.1,3.1,13,0.00,,---,0.00,VWS V14.01,2013-08-12 20:49:00,
2013-08-12 13:54:00,88.3,31.3,27.55,SSW,207,2.7,3.1,13,0.00,,---,0.00,VWS V14.01,2013-08-12 20:54:00,
2013-08-12 13:59:00,88.2,31.2,27.55,NE,35,4.0,5.8,13,0.00,,---,0.00,VWS V14.01,2013-08-12 20:59:00,
2013-08-12 14:03:00,88.0,31.0,27.55,SSW,197,3.6,6.3,13,0.00,,---,0.00,VWS V14.01,2013-08-12 21:03:00,
2013-08-12 14:08:00,88.2,31.2,27.55,SW,224,5.8,6.3,13,0.00,,---,0.00,VWS V14.01,2013-08-12 21:08:00,
2013-08-12 14:13:00,88.5,31.5,27.55,South,170,0.0,2.2,13,0.00,,---,0.00,VWS V14.01,2013-08-12 21:13:00,
2013-08-12 14:18:00,88.3,31.3,27.55,SE,131,3.6,3.6,13,0.00,,---,0.00,VWS V14.01,2013-08-12 21:18:00,
2013-08-12 14:23:00,88.0,31.0,27.55,SSE,150,0.0,5.8,13,0.00,,---,0.00,VWS V14.01,2013-08-12 21:23:00,
2013-08-12 14:28:00,87.8,30.9,27.55,East,87,2.7,2.7,13,0.00,,---,0.00,VWS V14.01,2013-08-12 21:28:00,
2013-08-12 14:33:00,87.8,30.9,27.55,ENE,60,2.7,2.7,13,0.00,,---,0.00,VWS V14.01,2013-08-12 21:33:00,
2013-08-12 14:38:00,88.0,31.0,27.55,SW,226,2.2,2.7,13,0.00,,---,0.00,VWS V14.01,2013-08-12 21:38:00,
2013-08-12 14:43:00,88.7,31.6,27.55,WSW,238,0.0,0.0,13,0.00,,---,0.00,VWS V14.01,2013-08-12 21:43:00,
2013-08-12 14:48:00,89.1,31.9,27.55,North,0,3.6,3.6,13,0.00,,---,0.00,VWS V14.01,2013-08-12 21:48:00,
2013-08-12 14:53:00,89.2,32.0,27.55,North,357,5.4,5.4,13,0.00,,---,0.00,VWS V14.01,2013-08-12 21:53:00,
2013-08-12 14:58:00,89.2,32.0,27.52,North,2,7.6,7.6,13,0.00,,---,0.00,VWS V14.01,2013-08-12 21:58:00,
2013-08-12 15:03:00,89.4,32.2,27.52,NW,317,3.1,5.8,13,0.00,,---,0.00,VWS V14.01,2013-08-12 22:03:00,
2013-08-12 15:08:00,89.8,30.5,27.52,NNW,346,2.7,4.9,12,0.00,,---,0.00,VWS V14.01,2013-08-12 22:08:00,
2013-08-12 15:13:00,89.8,30.5,27.52,NE,39,0.0,0.0,12,0.00,,---,0.00,VWS V14.01,2013-08-12 22:13:00,
2013-08-12 15:18:00,89.6,30.3,27.52,ENE,64,2.2,2.7,12,0.00,,---,0.00,VWS V14.01,2013-08-12 22:18:00,
2013-08-12 15:23:00,89.1,31.9,27.52,ENE,77,4.0,5.8,13,0.00,,---,0.00,VWS V14.01,2013-08-12 22:23:00,
2013-08-12 15:28:00,88.9,31.7,27.52,SE,131,0.0,2.7,13,0.00,,---,0.00,VWS V14.01,2013-08-12 22:28:00,
2013-08-12 15:33:00,89.2,32.0,27.52,North,357,2.2,3.6,13,0.00,,---,0.00,VWS V14.01,2013-08-12 22:33:00,
2013-08-12 15:38:00,89.8,30.5,27.52,NNW,346,0.0,3.6,12,0.00,,---,0.00,VWS V14.01,2013-08-12 22:38:00,
2013-08-12 15:43:00,90.3,30.9,27.52,NNW,334,4.0,4.0,12,0.00,,---,0.00,VWS V14.01,2013-08-12 22:43:00,
2013-08-12 15:48:00,91.0,31.4,27.52,NW,312,4.0,4.0,12,0.00,,---,0.00,VWS V14.01,2013-08-12 22:48:00,
2013-08-12 15:53:00,91.2,31.6,27.52,WSW,239,3.6,7.6,12,0.00,,---,0.00,VWS V14.01,2013-08-12 22:53:00,
2013-08-12 15:58:00,91.4,31.7,27.52,WSW,238,8.1,8.1,12,0.00,,---,0.00,VWS V14.01,2013-08-12 22:58:00,
2013-08-12 16:03:00,91.8,32.0,27.52,WNW,296,3.1,3.1,12,0.00,,---,0.00,VWS V14.01,2013-08-12 23:03:00,
2013-08-12 16:08:00,91.6,31.9,27.52,SSW,211,0.0,0.0,12,0.00,,---,0.00,VWS V14.01,2013-08-12 23:08:00,
2013-08-12 16:13:00,91.2,31.6,27.52,WSW,237,2.2,3.6,12,0.00,,---,0.00,VWS V14.01,2013-08-12 23:13:00,
2013-08-12 16:18:00,91.2,31.6,27.52,SW,235,2.2,3.1,12,0.00,,---,0.00,VWS V14.01,2013-08-12 23:18:00,
2013-08-12 16:23:00,90.9,31.3,27.52,ENE,76,4.9,4.9,12,0.00,,---,0.00,VWS V14.01,2013-08-12 23:23:00,
2013-08-12 16:28:00,90.3,30.9,27.52,East,85,4.0,4.9,12,0.00,,---,0.00,VWS V14.01,2013-08-12 23:28:00,
2013-08-12 16:33:00,90.0,30.6,27.52,East,87,0.0,0.0,12,0.00,,---,0.00,VWS V14.01,2013-08-12 23:33:00,
2013-08-12 16:38:00,90.0,30.6,27.52,ENE,60,2.2,2.2,12,0.00,,---,0.00,VWS V14.01,2013-08-12 23:38:00,
2013-08-12 16:43:00,90.1,30.7,27.52,NW,323,4.0,4.0,12,0.00,,---,0.00,VWS V14.01,2013-08-12 23:43:00,
2013-08-12 16:48:00,90.3,30.9,27.52,North,0,3.6,4.9,12,0.00,,---,0.00,VWS V14.01,2013-08-12 23:48:00,
2013-08-12 16:53:00,90.5,31.0,27.52,NNW,336,5.8,6.3,12,0.00,,---,0.00,VWS V14.01,2013-08-12 23:53:00,
2013-08-12 16:58:00,90.3,30.9,27.49,NNE,15,0.0,0.0,12,0.00,,---,0.00,VWS V14.01,2013-08-12 23:58:00,
2013-08-12 17:03:00,90.7,31.2,27.49,West,268,4.0,5.8,12,0.00,,---,0.00,VWS V14.01,2013-08-13 00:03:00,
2013-08-12 17:08:00,91.0,31.4,27.49,SW,225,0.0,2.7,12,0.00,,---,0.00,VWS V14.01,2013-08-13 00:08:00,
2013-08-12 17:13:00,91.0,31.4,27.49,NNE,17,3.6,3.6,12,0.00,,---,0.00,VWS V14.01,2013-08-13 00:13:00,
2013-08-12 17:18:00,90.9,31.3,27.49,NNW,339,7.6,8.3,12,0.00,,---,0.00,VWS V14.01,2013-08-13 00:18:00,
2013-08-12 17:23:00,90.7,31.2,27.49,NNW,343,4.9,4.9,12,0.00,,---,0.00,VWS V14.01,2013-08-13 00:23:00,
2013-08-12 17:28:00,90.5,31.0,27.49,North,353,0.0,3.6,12,0.00,,---,0.00,VWS V14.01,2013-08-13 00:28:00,
2013-08-12 17:33:00,90.3,30.9,27.49,North,353,0.0,0.0,12,0.00,,---,0.00,VWS V14.01,2013-08-13 00:33:00,
2013-08-12 17:38:00,90.3,30.9,27.49,NNE,22,2.7,5.4,12,0.00,,---,0.00,VWS V14.01,2013-08-13 00:38:00,
2013-08-12 17:43:00,90.0,30.6,27.49,ENE,63,0.0,2.7,12,0.00,,---,0.00,VWS V14.01,2013-08-13 00:43:00,
2013-08-12 17:48:00,89.6,30.3,27.49,East,88,0.0,0.0,12,0.00,,---,0.00,VWS V14.01,2013-08-13 00:48:00,
2013-08-12 17:53:00,89.6,30.3,27.49,SE,126,0.0,0.0,12,0.00,,---,0.00,VWS V14.01,2013-08-13 00:53:00,
2013-08-12 17:58:00,89.6,30.3,27.49,East,94,3.1,3.1,12,0.00,,---,0.00,VWS V14.01,2013-08-13 00:58:00,
2013-08-12 18:03:00,90.0,30.6,27.49,NE,35,2.2,2.7,12,0.00,,---,0.00,VWS V14.01,2013-08-13 01:03:00,
2013-08-12 18:08:00,90.0,30.6,27.49,ENE,71,0.0,2.7,12,0.00,,---,0.00,VWS V14.01,2013-08-13 01:08:00,
2013-08-12 18:13:00,90.1,30.7,27.49,ENE,77,0.0,0.0,12,0.00,,---,0.00,VWS V14.01,2013-08-13 01:13:00,
2013-08-12 18:18:00,90.5,31.0,27.49,ENE,75,0.0,0.0,12,0.00,,---,0.00,VWS V14.01,2013-08-13 01:18:00,
2013-08-12 18:23:00,90.9,31.3,27.49,ENE,77,0.0,0.0,12,0.00,,---,0.00,VWS V14.01,2013-08-13 01:23:00,
2013-08-12 18:28:00,91.0,31.4,27.49,NW,309,4.9,4.9,12,0.00,,---,0.00,VWS V14.01,2013-08-13 01:28:00,
2013-08-12 18:33:00,90.9,31.3,27.49,West,274,3.1,3.1,12,0.00,,---,0.00,VWS V14.01,2013-08-13 01:33:00,
2013-08-12 18:38:00,90.7,31.2,27.49,West,259,5.4,5.8,12,0.00,,---,0.00,VWS V14.01,2013-08-13 01:38:00,
2013-08-12 18:43:00,90.5,31.0,27.49,SW,223,5.4,5.8,12,0.00,,---,0.00,VWS V14.01,2013-08-13 01:43:00,
2013-08-12 18:48:00,90.5,31.0,27.49,West,262,0.0,5.8,12,0.00,,---,0.00,VWS V14.01,2013-08-13 01:48:00,
2013-08-12 18:53:00,90.1,30.7,27.49,WSW,258,6.3,8.1,12,0.00,,---,0.00,VWS V14.01,2013-08-13 01:53:00,
2013-08-12 18:58:00,90.0,30.6,27.49,WSW,255,3.6,4.0,12,0.00,,---,0.00,VWS V14.01,2013-08-13 01:58:00,
2013-08-12 19:03:00,90.1,30.7,27.49,West,267,4.0,6.3,12,0.00,,---,0.00,VWS V14.01,2013-08-13 02:03:00,
2013-08-12 19:08:00,90.0,30.6,27.49,West,270,3.1,4.0,12,0.00,,---,0.00,VWS V14.01,2013-08-13 02:08:00,
2013-08-12 19:13:00,89.8,30.5,27.49,WNW,292,4.0,4.0,12,0.00,,---,0.00,VWS V14.01,2013-08-13 02:13:00,
2013-08-12 19:18:00,89.2,32.0,27.49,NW,320,3.1,4.9,13,0.00,,---,0.00,VWS V14.01,2013-08-13 02:18:00,
2013-08-12 19:23:00,88.5,31.5,27.49,WSW,257,0.0,4.0,13,0.00,,---,0.00,VWS V14.01,2013-08-13 02:23:00,
2013-08-12 19:28:00,87.8,30.9,27.49,NW,320,4.0,4.5,13,0.00,,---,0.00,VWS V14.01,2013-08-13 02:28:00,
2013-08-12 19:33:00,87.4,30.6,27.49,NW,325,4.9,4.9,13,0.00,,---,0.00,VWS V14.01,2013-08-13 02:33:00,
2013-08-12 19:38:00,87.1,30.3,27.49,NW,316,3.1,3.1,13,0.00,,---,0.00,VWS V14.01,2013-08-13 02:38:00,
2013-08-12 19:43:00,86.5,29.9,27.49,NW,314,2.7,2.7,13,0.00,,---,0.00,VWS V14.01,2013-08-13 02:43:00,
2013-08-12 19:48:00,86.0,29.5,27.49,NW,314,2.2,2.2,13,0.00,,---,0.00,VWS V14.01,2013-08-13 02:48:00,
2013-08-12 19:53:00,85.3,28.9,27.49,WNW,300,0.0,0.0,13,0.00,,---,0.00,VWS V14.01,2013-08-13 02:53:00,
2013-08-12 19:58:00,84.6,28.4,27.52,WNW,300,0.0,0.0,13,0.00,,---,0.00,VWS V14.01,2013-08-13 02:58:00,
2013-08-12 20:03:00,83.8,29.6,27.52,WNW,300,0.0,0.0,14,0.00,,---,0.00,VWS V14.01,2013-08-13 03:03:00,
2013-08-12 20:08:00,82.8,28.8,27.52,WNW,300,0.0,0.0,14,0.00,,---,0.00,VWS V14.01,2013-08-13 03:08:00,
2013-08-12 20:13:00,81.9,28.0,27.52,NW,321,0.0,0.0,14,0.00,,---,0.00,VWS V14.01,2013-08-13 03:13:00,
2013-08-12 20:18:00,81.0,27.3,27.52,NW,321,0.0,0.0,14,0.00,,---,0.00,VWS V14.01,2013-08-13 03:18:00,
2013-08-12 20:23:00,80.2,28.4,27.52,NW,321,0.0,0.0,15,0.00,,---,0.00,VWS V14.01,2013-08-13 03:23:00,
2013-08-12 20:28:00,79.7,28.0,27.52,WSW,250,0.0,0.0,15,0.00,,---,0.00,VWS V14.01,2013-08-13 03:28:00,
2013-08-12 20:33:00,79.0,27.4,27.52,WSW,256,0.0,0.0,15,0.00,,---,0.00,VWS V14.01,2013-08-13 03:33:00,
2013-08-12 20:38:00,78.3,26.9,27.52,WNW,297,0.0,0.0,15,0.00,,---,0.00,VWS V14.01,2013-08-13 03:38:00,
2013-08-12 20:43:00,77.7,26.4,27.52,WNW,297,0.0,0.0,15,0.00,,---,0.00,VWS V14.01,2013-08-13 03:43:00,
2013-08-12 20:48:00,77.2,26.0,27.52,WNW,297,0.0,0.0,15,0.00,,---,0.00,VWS V14.01,2013-08-13 03:48:00,
2013-08-12 20:53:00,77.0,25.9,27.52,NW,315,0.0,2.2,15,0.00,,---,0.00,VWS V14.01,2013-08-13 03:53:00,
2013-08-12 20:58:00,77.0,25.9,27.52,NNW,336,3.1,3.6,15,0.00,,---,0.00,VWS V14.01,2013-08-13 03:58:00,
2013-08-12 21:01:00,76.8,25.7,27.52,NNW,344,3.6,3.6,15,0.00,,---,0.00,VWS V14.01,2013-08-13 04:01:00,
2013-08-12 21:06:00,76.6,25.6,27.52,NNW,329,0.0,0.0,15,0.00,,---,0.00,VWS V14.01,2013-08-13 04:06:00,
2013-08-12 21:11:00,76.3,25.3,27.52,NW,322,0.0,0.0,15,0.00,,---,0.00,VWS V14.01,2013-08-13 04:11:00,
2013-08-12 21:16:00,75.7,24.9,27.52,WNW,299,0.0,2.7,15,0.00,,---,0.00,VWS V14.01,2013-08-13 04:16:00,
2013-08-12 21:21:00,75.7,24.9,27.52,NW,318,3.1,5.4,15,0.00,,---,0.00,VWS V14.01,2013-08-13 04:21:00,
2013-08-12 21:26:00,75.7,24.9,27.52,WNW,298,5.8,5.8,15,0.00,,---,0.00,VWS V14.01,2013-08-13 04:26:00,
2013-08-12 21:31:00,75.6,24.7,27.52,WNW,294,0.0,2.2,15,0.00,,---,0.00,VWS V14.01,2013-08-13 04:31:00,
2013-08-12 21:36:00,75.0,25.8,27.52,NW,314,0.0,2.7,16,0.00,,---,0.00,VWS V14.01,2013-08-13 04:36:00,
2013-08-12 21:41:00,74.8,25.7,27.52,NW,316,2.7,4.0,16,0.00,,---,0.00,VWS V14.01,2013-08-13 04:41:00,
2013-08-12 21:46:00,74.8,25.7,27.52,NW,321,2.7,3.1,16,0.00,,---,0.00,VWS V14.01,2013-08-13 04:46:00,
2013-08-12 21:51:00,74.7,25.5,27.52,NNW,343,3.1,3.1,16,0.00,,---,0.00,VWS V14.01,2013-08-13 04:51:00,
2013-08-12 21:56:00,74.5,25.4,27.52,North,357,3.6,3.6,16,0.00,,---,0.00,VWS V14.01,2013-08-13 04:56:00,
2013-08-12 22:01:00,74.1,20.2,27.52,North,353,2.7,4.0,13,0.00,,---,0.00,VWS V14.01,2013-08-13 05:01:00,
2013-08-12 22:06:00,73.9,20.0,27.52,NNW,333,4.0,6.3,13,0.00,,---,0.00,VWS V14.01,2013-08-13 05:06:00,
2013-08-12 22:11:00,73.9,20.0,27.52,NW,306,4.9,5.4,13,0.00,,---,0.00,VWS V14.01,2013-08-13 05:11:00,
2013-08-12 22:16:00,73.8,19.9,27.52,North,357,3.1,4.9,13,0.00,,---,0.00,VWS V14.01,2013-08-13 05:16:00,
2013-08-12 22:21:00,73.8,19.9,27.52,North,357,3.1,5.4,13,0.00,,---,0.00,VWS V14.01,2013-08-13 05:21:00,
2013-08-12 22:26:00,73.8,19.9,27.52,North,1,4.0,7.6,13,0.00,,---,0.00,VWS V14.01,2013-08-13 05:26:00,
2013-08-12 22:31:00,73.8,19.9,27.55,North,349,3.1,5.4,13,0.00,,---,0.00,VWS V14.01,2013-08-13 05:31:00,
2013-08-12 22:36:00,73.4,19.6,27.55,North,0,2.2,3.6,13,0.00,,---,0.00,VWS V14.01,2013-08-13 05:36:00,
2013-08-12 22:41:00,73.2,21.2,27.55,North,0,6.7,6.7,14,0.00,,---,0.00,VWS V14.01,2013-08-13 05:41:00,
2013-08-12 22:46:00,73.2,21.2,27.55,NNE,13,3.6,4.9,14,0.00,,---,0.00,VWS V14.01,2013-08-13 05:46:00,
2013-08-12 22:51:00,73.0,21.1,27.55,North,357,4.0,5.8,14,0.00,,---,0.00,VWS V14.01,2013-08-13 05:51:00,
2013-08-12 22:56:00,72.9,20.9,27.55,NNE,16,3.1,4.0,14,0.00,,---,0.00,VWS V14.01,2013-08-13 05:56:00,
2013-08-12 23:01:00,72.7,20.8,27.55,North,353,3.6,4.0,14,0.00,,---,0.00,VWS V14.01,2013-08-13 06:01:00,
2013-08-12 23:06:00,72.3,20.5,27.55,North,353,2.7,3.1,14,0.00,,---,0.00,VWS V14.01,2013-08-13 06:06:00,
2013-08-12 23:11:00,72.1,20.4,27.55,NNW,329,0.0,0.0,14,0.00,,---,0.00,VWS V14.01,2013-08-13 06:11:00,
2013-08-12 23:16:00,71.6,19.9,27.55,NNW,329,0.0,0.0,14,0.00,,---,0.00,VWS V14.01,2013-08-13 06:16:00,
2013-08-12 23:21:00,71.2,19.6,27.55,NNW,330,0.0,0.0,14,0.00,,---,0.00,VWS V14.01,2013-08-13 06:21:00,
2013-08-12 23:26:00,70.7,19.2,27.55,NNW,330,0.0,0.0,14,0.00,,---,0.00,VWS V14.01,2013-08-13 06:26:00,
2013-08-12 23:31:00,70.2,18.8,27.55,NNW,330,0.0,0.0,14,0.00,,---,0.00,VWS V14.01,2013-08-13 06:31:00,
2013-08-12 23:36:00,69.6,20.0,27.55,NW,322,0.0,0.0,15,0.00,,---,0.00,VWS V14.01,2013-08-13 06:36:00,
2013-08-12 23:41:00,69.1,19.5,27.55,NW,310,0.0,0.0,15,0.00,,---,0.00,VWS V14.01,2013-08-13 06:41:00,
2013-08-12 23:46:00,68.9,19.4,27.55,NW,310,0.0,0.0,15,0.00,,---,0.00,VWS V14.01,2013-08-13 06:46:00,
2013-08-12 23:50:00,68.5,19.1,27.55,NW,310,0.0,0.0,15,0.00,,---,0.00,VWS V14.01,2013-08-13 06:50:00,
2013-08-12 23:55:00,68.4,19.0,27.55,WNW,298,0.0,0.0,15,0.00,,---,0.00,VWS V14.01,2013-08-13 06:55:00,